Time;durP1;ratioP1;P1;durP2;ratioP2;P2;SDS_P1;SDS_P2;PMS_P1;PMS_P2;Temp;Humidity;BMP_temperature;BMP_pressure;BME280_temperature;BME280_humidity;BME280_pressure;Samples;Min_cycle;Max_cycle;Signal;HPM_P1;HPM_P2
2022/02/15 00:02:12;;;;;;;5.45;4.82;;;;;;;6.83;74.77;99945.53;5080195;28;20023;-23
2022/02/15 00:04:37;;;;;;;6.30;4.75;;;;;;;6.82;74.41;99943.78;5075579;28;20500;-21
2022/02/15 00:07:03;;;;;;;5.25;4.72;;;;;;;6.80;74.87;99941.16;5076444;28;20036;-20
2022/02/15 00:09:28;;;;;;;6.45;4.90;;;;;;;6.79;74.71;99944.66;5076782;28;20032;-19
2022/02/15 00:11:53;;;;;;;7.30;5.20;;;;;;;6.75;74.97;99946.44;5079335;28;20035;-20
2022/02/15 00:14:19;;;;;;;6.32;5.20;;;;;;;6.75;74.52;99949.06;5082712;28;20103;-24
2022/02/15 00:16:44;;;;;;;7.53;4.95;;;;;;;6.70;75.23;99932.47;5076846;28;20485;-19
2022/02/15 00:19:10;;;;;;;6.72;4.78;;;;;;;6.72;74.68;99943.84;5077918;28;20028;-19
2022/02/15 00:21:35;;;;;;;6.22;5.63;;;;;;;6.68;75.11;99936.88;5079322;28;20024;-19
2022/02/15 00:24:01;;;;;;;5.05;4.55;;;;;;;6.66;74.89;99941.22;5070714;28;20486;-20
2022/02/15 00:26:27;;;;;;;9.13;5.28;;;;;;;6.65;74.86;99942.13;5075487;28;20115;-21
2022/02/15 00:28:53;;;;;;;4.57;4.03;;;;;;;6.64;74.93;99945.63;5073624;28;20103;-21
2022/02/15 00:31:18;;;;;;;5.78;5.15;;;;;;;6.62;75.26;99953.50;5076787;28;20119;-19
2022/02/15 00:33:44;;;;;;;6.10;5.45;;;;;;;6.60;75.05;99957.00;5074100;28;20028;-20
2022/02/15 00:36:09;;;;;;;5.75;5.15;;;;;;;6.58;74.97;99951.78;5082366;28;20093;-20
2022/02/15 00:38:34;;;;;;;9.35;6.18;;;;;;;6.56;75.52;99961.38;5083020;28;20502;-21
2022/02/15 00:41:00;;;;;;;6.03;5.07;;;;;;;6.54;75.06;99971.84;5078706;28;20394;-19
2022/02/15 00:43:25;;;;;;;6.15;4.93;;;;;;;6.53;75.40;99970.13;5071898;28;20032;-21
2022/02/15 00:45:51;;;;;;;6.85;5.22;;;;;;;6.52;75.43;99965.75;5081719;28;20553;-20
2022/02/15 00:48:16;;;;;;;7.82;5.43;;;;;;;6.51;75.62;99977.09;5075984;28;20074;-22
2022/02/15 00:50:41;;;;;;;5.53;4.78;;;;;;;6.48;75.19;99976.25;5079270;28;20526;-19
2022/02/15 00:53:07;;;;;;;5.93;4.70;;;;;;;6.47;75.33;99970.13;5079697;28;20012;-19
2022/02/15 00:55:32;;;;;;;5.20;4.70;;;;;;;6.44;75.60;99970.16;5073674;28;20116;-19
2022/02/15 00:57:58;;;;;;;6.90;4.57;;;;;;;6.39;75.34;99962.31;5073341;28;20052;-20
2022/02/15 01:00:23;;;;;;;5.40;4.72;;;;;;;6.38;75.61;99960.59;5071475;28;20040;-22
2022/02/15 01:02:49;;;;;;;5.82;4.40;;;;;;;6.40;75.38;99976.25;5079896;28;20072;-22
2022/02/15 01:05:15;;;;;;;6.82;4.70;;;;;;;6.35;75.58;99968.44;5075768;28;20028;-22
2022/02/15 01:07:40;;;;;;;5.80;4.65;;;;;;;6.33;75.51;99971.94;5077661;28;20126;-21
2022/02/15 01:10:06;;;;;;;5.20;4.45;;;;;;;6.35;75.33;99976.31;5072766;28;20024;-20
2022/02/15 01:12:32;;;;;;;5.07;4.38;;;;;;;6.34;75.64;99984.16;5074694;28;20017;-20
2022/02/15 01:14:57;;;;;;;6.28;4.47;;;;;;;6.29;75.30;99979.81;5079215;28;20097;-19
2022/02/15 01:17:22;;;;;;;6.68;4.45;;;;;;;6.30;75.28;99983.28;5075865;28;20059;-20
2022/02/15 01:19:48;;;;;;;6.07;5.10;;;;;;;6.27;75.22;99986.78;5073759;28;20067;-19
2022/02/15 01:22:13;;;;;;;5.82;4.28;;;;;;;6.25;75.32;99990.28;5076950;28;20028;-22
2022/02/15 01:24:38;;;;;;;6.57;4.15;;;;;;;6.23;75.40;99990.28;5076136;28;20035;-23
2022/02/15 01:27:04;;;;;;;5.22;4.45;;;;;;;6.19;75.19;99991.16;5073348;28;20417;-19
2022/02/15 01:29:29;;;;;;;6.95;4.85;;;;;;;6.16;75.18;99981.56;5072157;28;20086;-21
2022/02/15 01:31:54;;;;;;;6.25;4.85;;;;;;;6.15;75.20;99982.47;5076950;28;20046;-25
2022/02/15 01:34:20;;;;;;;6.80;5.28;;;;;;;6.13;75.48;99972.84;5082461;28;20375;-19
2022/02/15 01:36:46;;;;;;;5.22;4.72;;;;;;;6.12;75.43;99979.84;5077857;28;20045;-20
2022/02/15 01:39:11;;;;;;;5.38;4.28;;;;;;;6.09;75.69;99984.19;5079776;28;20074;-19
2022/02/15 01:41:37;;;;;;;5.78;4.60;;;;;;;6.07;75.29;99983.34;5083070;28;20477;-22
2022/02/15 01:44:02;;;;;;;6.97;4.78;;;;;;;6.03;75.52;99983.34;5076024;28;20354;-22
2022/02/15 01:46:28;;;;;;;6.18;4.88;;;;;;;6.01;76.06;99982.44;5077515;28;20028;-20
2022/02/15 01:48:53;;;;;;;6.88;4.65;;;;;;;6.00;75.78;99982.47;5074156;28;20028;-22
2022/02/15 01:51:19;;;;;;;6.15;4.30;;;;;;;5.98;76.23;99987.69;5083223;28;20032;-19
2022/02/15 01:53:44;;;;;;;4.75;4.30;;;;;;;5.95;75.62;99987.69;5081016;28;20028;-23
2022/02/15 01:56:12;;;;;;;7.43;4.38;;;;;;;5.94;75.77;99995.53;5082458;28;20023;-20
2022/02/15 01:58:38;;;;;;;6.93;4.43;;;;;;;5.90;76.04;99985.06;5081871;28;20474;-19
2022/02/15 02:01:04;;;;;;;7.15;4.45;;;;;;;5.87;76.44;99976.38;5078136;28;20032;-23
2022/02/15 02:03:29;;;;;;;4.65;4.10;;;;;;;5.86;76.11;99982.44;5078580;28;20037;-20
2022/02/15 02:05:55;;;;;;;5.55;4.07;;;;;;;5.84;76.13;99984.22;5081667;28;20039;-21
2022/02/15 02:08:26;;;;;;;6.78;4.18;;;;;;;5.83;75.85;99991.19;5080750;28;20046;-21
2022/02/15 02:10:52;;;;;;;4.57;3.90;;;;;;;5.82;76.29;99996.41;5080793;28;20045;-22
2022/02/15 02:13:17;;;;;;;7.40;4.47;;;;;;;5.81;76.44;99989.44;5079216;28;20021;-23
2022/02/15 02:15:44;;;;;;;5.40;4.82;;;;;;;5.80;75.98;99995.56;5068968;28;20474;-20
2022/02/15 02:18:09;;;;;;;8.15;4.20;;;;;;;5.75;76.03;99996.44;5077936;28;20035;-21
2022/02/15 02:20:35;;;;;;;7.32;4.03;;;;;;;5.75;76.15;100006.00;5081818;28;20036;-23
2022/02/15 02:23:00;;;;;;;5.47;3.88;;;;;;;5.74;76.22;100012.13;5080612;28;20474;-19
2022/02/15 02:25:25;;;;;;;7.63;4.47;;;;;;;5.71;76.29;99999.94;5076803;28;20032;-21
2022/02/15 02:27:51;;;;;;;5.75;4.70;;;;;;;5.70;76.71;100007.78;5081475;28;20043;-20
2022/02/15 02:30:17;;;;;;;6.45;4.50;;;;;;;5.69;76.38;100006.00;5080321;28;20048;-21
2022/02/15 02:32:42;;;;;;;7.80;4.32;;;;;;;5.67;76.43;100013.00;5081874;28;20016;-21
2022/02/15 02:35:09;;;;;;;5.03;4.22;;;;;;;5.66;76.57;100009.50;5081555;28;20031;-20
2022/02/15 02:37:35;;;;;;;4.88;3.70;;;;;;;5.64;76.38;100013.88;5081076;28;20028;-21
2022/02/15 02:40:03;;;;;;;4.70;3.85;;;;;;;5.62;76.57;100003.41;5081002;28;20066;-20
2022/02/15 02:42:29;;;;;;;4.53;3.85;;;;;;;5.59;76.35;100002.50;5080749;28;20048;-21
2022/02/15 02:44:58;;;;;;;7.97;4.07;;;;;;;5.59;76.43;100010.34;5074696;28;20039;-20
2022/02/15 02:47:24;;;;;;;5.25;3.90;;;;;;;5.58;76.64;100014.75;5076595;28;20059;-22
2022/02/15 02:49:50;;;;;;;5.57;3.85;;;;;;;5.56;76.54;100013.84;5081243;28;20100;-19
2022/02/15 02:52:16;;;;;;;4.85;3.40;;;;;;;5.51;76.72;100013.00;5078794;28;20032;-22
2022/02/15 02:54:41;;;;;;;4.80;3.50;;;;;;;5.52;76.43;100018.22;5065565;28;20394;-18
2022/02/15 02:57:07;;;;;;;4.35;3.53;;;;;;;5.51;76.08;100019.06;5079358;28;20487;-23
2022/02/15 02:59:33;;;;;;;4.88;3.50;;;;;;;5.49;75.96;100010.38;5076476;28;20035;-21
2022/02/15 03:01:58;;;;;;;6.97;3.75;;;;;;;5.47;76.47;100013.84;5075011;28;20017;-21
2022/02/15 03:04:24;;;;;;;4.15;3.70;;;;;;;5.45;76.32;100012.97;5080380;28;20028;-21
2022/02/15 03:06:49;;;;;;;4.03;3.53;;;;;;;5.42;76.45;100016.47;5078049;28;21175;-20
2022/02/15 03:09:15;;;;;;;3.88;3.47;;;;;;;5.41;76.38;100022.56;5077983;28;20027;-22
2022/02/15 03:11:41;;;;;;;4.70;3.72;;;;;;;5.40;76.56;100010.34;5077609;28;20020;-20
2022/02/15 03:14:06;;;;;;;4.45;3.17;;;;;;;5.38;76.84;100017.31;5079074;28;20062;-20
2022/02/15 03:16:31;;;;;;;4.50;3.63;;;;;;;5.36;77.07;100026.91;5076263;28;20123;-22
2022/02/15 03:18:57;;;;;;;4.40;3.72;;;;;;;5.34;76.27;100026.03;5080170;28;21625;-22
2022/02/15 03:21:23;;;;;;;4.32;3.85;;;;;;;5.32;76.41;100031.25;5075057;28;20521;-20
2022/02/15 03:23:48;;;;;;;5.97;4.03;;;;;;;5.29;76.79;100026.03;5074701;28;20024;-19
2022/02/15 03:26:14;;;;;;;6.72;4.45;;;;;;;5.28;76.63;100037.34;5077055;28;20024;-21
2022/02/15 03:28:39;;;;;;;4.47;3.58;;;;;;;5.25;76.64;100027.78;5075206;28;20028;-19
2022/02/15 03:31:05;;;;;;;5.38;3.67;;;;;;;5.21;76.58;100019.91;5065658;28;20028;-25
2022/02/15 03:33:30;;;;;;;7.20;4.10;;;;;;;5.23;76.79;100037.34;5076902;28;20032;-19
2022/02/15 03:35:56;;;;;;;7.50;3.92;;;;;;;5.22;76.50;100030.38;5075237;28;20070;-21
2022/02/15 03:38:21;;;;;;;5.85;3.83;;;;;;;5.20;76.68;100033.84;5078062;28;20671;-20
2022/02/15 03:43:31;;;;;;;6.00;4.20;;;;;;;5.16;76.74;100035.56;5072277;28;20208;-21
2022/02/15 03:45:56;;;;;;;5.93;3.92;;;;;;;5.16;76.71;100045.16;5075164;28;20538;-20
2022/02/15 03:48:22;;;;;;;9.10;5.35;;;;;;;5.11;77.25;100047.75;5076441;28;20037;-19
2022/02/15 03:50:47;;;;;;;7.05;4.35;;;;;;;5.11;77.41;100048.63;5077399;28;20024;-20
2022/02/15 03:53:15;;;;;;;5.72;4.57;;;;;;;5.09;76.51;100049.47;5068564;28;20374;-23
2022/02/15 03:55:41;;;;;;;6.38;4.22;;;;;;;5.07;77.17;100064.31;5067055;28;20063;-18
2022/02/15 03:58:06;;;;;;;6.28;4.35;;;;;;;5.00;77.21;100055.53;5067312;28;21336;-19
2022/02/15 04:00:32;;;;;;;6.78;4.25;;;;;;;5.03;77.48;100054.72;5067521;28;20059;-22
2022/02/15 04:02:57;;;;;;;7.05;4.15;;;;;;;5.00;77.96;100059.03;5068466;28;20120;-22
2022/02/15 04:05:23;;;;;;;7.95;5.85;;;;;;;4.98;77.87;100052.06;5079706;28;20035;-19
2022/02/15 04:07:48;;;;;;;5.90;5.20;;;;;;;4.98;77.46;100060.78;5078512;28;20048;-22
2022/02/15 04:10:14;;;;;;;8.93;4.88;;;;;;;4.96;78.01;100057.28;5076998;28;20071;-20
2022/02/15 04:12:40;;;;;;;6.47;5.07;;;;;;;4.95;78.62;100060.78;5071491;28;20663;-20
2022/02/15 04:15:05;;;;;;;6.55;4.60;;;;;;;4.93;78.23;100053.81;5075520;28;20078;-21
2022/02/15 04:17:31;;;;;;;8.63;5.03;;;;;;;4.93;77.96;100061.66;5080077;28;20028;-20
2022/02/15 04:19:56;;;;;;;5.97;4.53;;;;;;;4.93;78.08;100066.88;5074909;28;20033;-21
2022/02/15 04:22:21;;;;;;;6.55;4.85;;;;;;;4.91;78.65;100064.25;5076880;28;20035;-20
2022/02/15 04:24:47;;;;;;;7.40;5.55;;;;;;;4.91;78.51;100060.75;5075426;28;20047;-20
2022/02/15 04:27:12;;;;;;;9.45;4.90;;;;;;;4.89;78.22;100068.59;5079480;28;20085;-21
2022/02/15 04:29:37;;;;;;;9.50;5.47;;;;;;;4.88;78.34;100075.53;5076332;28;20543;-21
2022/02/15 04:32:03;;;;;;;8.25;5.55;;;;;;;4.88;77.84;100082.53;5069353;28;20457;-22
2022/02/15 04:34:29;;;;;;;12.00;5.95;;;;;;;4.87;78.44;100080.78;5070593;28;20043;-19
2022/02/15 04:36:54;;;;;;;8.43;6.40;;;;;;;4.88;78.38;100095.59;5076185;28;20040;-21
2022/02/15 04:39:20;;;;;;;7.32;4.80;;;;;;;4.88;78.03;100095.59;5074914;28;20103;-21
2022/02/15 04:41:45;;;;;;;9.80;5.72;;;;;;;4.86;78.36;100097.31;5074809;28;20024;-20
2022/02/15 04:44:10;;;;;;;7.97;6.05;;;;;;;4.87;78.29;100093.84;5073888;28;20563;-20
2022/02/15 04:46:37;;;;;;;7.90;5.50;;;;;;;4.85;78.03;100096.44;5076843;28;20045;-20
2022/02/15 04:49:03;;;;;;;9.63;5.78;;;;;;;4.86;78.27;100107.75;5079490;28;20105;-22
2022/02/15 04:51:28;;;;;;;6.95;5.47;;;;;;;4.86;77.99;100105.13;5074509;28;20036;-20
2022/02/15 04:53:53;;;;;;;9.40;5.55;;;;;;;4.83;77.86;100102.50;5077122;28;20020;-21
2022/02/15 04:56:19;;;;;;;8.75;5.63;;;;;;;4.78;78.11;100104.22;5076919;28;20064;-19
2022/02/15 04:58:44;;;;;;;8.98;5.47;;;;;;;4.81;78.36;100112.09;5077582;28;20024;-21
2022/02/15 05:01:13;;;;;;;10.05;5.50;;;;;;;4.82;77.88;100116.44;5073098;28;20079;-23
2022/02/15 05:03:39;;;;;;;11.40;5.97;;;;;;;4.77;78.15;100119.03;5077507;28;20082;-19
2022/02/15 05:06:04;;;;;;;7.72;5.45;;;;;;;4.79;78.13;100127.75;5078489;28;20096;-20
2022/02/15 05:08:30;;;;;;;8.48;5.35;;;;;;;4.75;78.27;100126.00;5076450;28;20466;-21
2022/02/15 05:10:55;;;;;;;8.63;5.68;;;;;;;4.74;77.97;100130.34;5074706;28;20059;-20
2022/02/15 05:13:20;;;;;;;9.07;5.22;;;;;;;4.75;77.95;100132.09;5073745;28;20645;-20
2022/02/15 05:15:46;;;;;;;8.32;5.68;;;;;;;4.75;78.36;100136.44;5073490;28;20529;-20
2022/02/15 05:18:11;;;;;;;7.70;5.53;;;;;;;4.73;78.12;100139.03;5076336;28;20031;-20
2022/02/15 05:20:37;;;;;;;9.00;5.53;;;;;;;4.72;78.25;100137.31;5074546;28;20111;-23
2022/02/15 05:23:02;;;;;;;8.73;5.68;;;;;;;4.73;77.93;100146.88;5074326;28;20066;-22
2022/02/15 05:25:28;;;;;;;9.35;4.97;;;;;;;4.71;77.90;100150.34;5073152;28;20081;-21
2022/02/15 05:27:55;;;;;;;8.82;5.40;;;;;;;4.70;77.40;100149.47;5076708;28;20079;-20
2022/02/15 05:30:20;;;;;;;10.32;6.20;;;;;;;4.69;78.04;100158.19;5079181;28;20678;-23
2022/02/15 05:32:46;;;;;;;8.63;5.97;;;;;;;4.68;77.75;100160.78;5074066;28;20016;-20
2022/02/15 05:35:11;;;;;;;8.20;5.28;;;;;;;4.67;77.43;100162.50;5071078;28;20025;-24
2022/02/15 05:37:37;;;;;;;8.95;5.80;;;;;;;4.67;77.74;100164.25;5075305;28;20765;-22
2022/02/15 05:40:05;;;;;;;7.60;5.28;;;;;;;4.65;77.49;100156.41;5072865;28;20035;-20
2022/02/15 05:42:30;;;;;;;8.68;5.55;;;;;;;4.64;78.00;100159.00;5073365;28;20028;-19
2022/02/15 05:44:56;;;;;;;6.70;5.10;;;;;;;4.63;77.76;100163.34;5074587;28;20243;-21
2022/02/15 05:47:22;;;;;;;8.35;4.88;;;;;;;4.61;78.15;100159.88;5078729;28;20021;-23
2022/02/15 05:52:31;;;;;;;7.68;5.22;;;;;;;4.58;77.65;100165.94;5076014;28;20039;-20
2022/02/15 05:54:56;;;;;;;6.85;5.50;;;;;;;4.56;77.76;100172.88;5073921;28;20028;-19
2022/02/15 05:57:21;;;;;;;6.70;5.50;;;;;;;4.53;77.56;100164.16;5072198;28;20035;-21
2022/02/15 05:59:47;;;;;;;7.97;5.60;;;;;;;4.53;77.63;100166.78;5073615;28;20058;-20
2022/02/15 06:02:12;;;;;;;6.30;4.55;;;;;;;4.52;77.70;100171.13;5074728;28;20029;-21
2022/02/15 06:04:38;;;;;;;8.15;5.20;;;;;;;4.49;77.39;100171.97;5073859;28;20012;-20
2022/02/15 06:07:07;;;;;;;9.25;6.07;;;;;;;4.49;77.44;100171.09;5072966;28;20482;-20
2022/02/15 06:09:32;;;;;;;8.57;5.53;;;;;;;4.47;77.61;100181.53;5077598;28;20111;-19
2022/02/15 06:11:57;;;;;;;7.65;6.07;;;;;;;4.43;77.76;100179.75;5075044;28;20148;-21
2022/02/15 06:14:23;;;;;;;10.18;5.38;;;;;;;4.42;77.43;100185.84;5072987;28;20482;-20
2022/02/15 06:16:48;;;;;;;5.93;4.85;;;;;;;4.40;77.19;100184.09;5077781;28;20070;-19
2022/02/15 06:19:13;;;;;;;5.97;5.20;;;;;;;4.37;77.21;100192.78;5074953;28;20462;-19
2022/02/15 06:21:39;;;;;;;7.13;5.40;;;;;;;4.34;77.22;100187.53;5079960;28;20042;-19
2022/02/15 06:24:05;;;;;;;7.65;5.93;;;;;;;4.33;77.33;100193.56;5079786;28;20108;-19
2022/02/15 06:26:30;;;;;;;8.98;5.50;;;;;;;4.31;77.47;100198.81;5079905;28;20016;-19
2022/02/15 06:28:55;;;;;;;5.90;5.18;;;;;;;4.29;77.14;100205.75;5080843;28;20024;-20
2022/02/15 06:31:21;;;;;;;6.40;5.75;;;;;;;4.26;77.22;100205.72;5080960;28;20415;-22
2022/02/15 06:33:46;;;;;;;6.93;5.30;;;;;;;4.24;76.78;100213.53;5080262;28;20016;-20
2022/02/15 06:36:11;;;;;;;8.95;5.28;;;;;;;4.21;77.66;100213.50;5075153;28;20094;-20
2022/02/15 06:38:37;;;;;;;8.40;5.25;;;;;;;4.19;77.00;100207.41;5078585;28;20028;-19
2022/02/15 06:41:02;;;;;;;8.05;5.32;;;;;;;4.16;77.18;100209.97;5077502;28;20028;-19
2022/02/15 06:43:28;;;;;;;9.63;5.93;;;;;;;4.14;77.31;100214.31;5081466;28;20028;-19
2022/02/15 06:45:53;;;;;;;7.85;6.10;;;;;;;4.12;77.83;100218.63;5079018;28;20103;-19
2022/02/15 06:48:19;;;;;;;6.28;5.22;;;;;;;4.11;77.42;100227.34;5082970;28;20341;-20
2022/02/15 06:50:44;;;;;;;8.30;5.35;;;;;;;4.08;77.84;100230.78;5078392;28;20110;-20
2022/02/15 06:53:10;;;;;;;8.45;5.28;;;;;;;4.06;77.75;100234.22;5080285;28;20394;-20
2022/02/15 06:55:35;;;;;;;10.52;6.20;;;;;;;4.04;77.40;100235.94;5081959;28;20047;-19
2022/02/15 06:58:00;;;;;;;9.32;5.55;;;;;;;4.02;77.77;100241.16;5082407;28;20020;-19
2022/02/15 07:00:26;;;;;;;8.88;5.35;;;;;;;4.02;77.62;100237.66;5082586;28;20111;-21
2022/02/15 07:02:51;;;;;;;8.18;5.47;;;;;;;4.00;78.34;100242.00;5081689;28;20048;-20
2022/02/15 07:05:17;;;;;;;12.13;6.35;;;;;;;3.97;77.96;100246.31;5079300;28;20035;-21
2022/02/15 07:07:43;;;;;;;6.85;5.68;;;;;;;3.97;78.49;100258.50;5082555;28;20033;-22
2022/02/15 07:10:09;;;;;;;8.82;6.03;;;;;;;3.95;78.23;100253.28;5078443;28;20077;-23
2022/02/15 07:12:34;;;;;;;9.40;6.07;;;;;;;3.94;77.87;100263.69;5079896;28;20045;-19
2022/02/15 07:15:00;;;;;;;6.55;5.55;;;;;;;3.92;77.99;100268.88;5076293;28;20503;-18
2022/02/15 07:17:26;;;;;;;8.15;6.07;;;;;;;3.93;78.43;100275.84;5079990;28;20030;-21
2022/02/15 07:19:52;;;;;;;10.40;7.10;;;;;;;3.92;78.28;100270.59;5082675;28;20031;-20
2022/02/15 07:22:18;;;;;;;8.13;6.00;;;;;;;3.91;78.33;100272.34;5078011;28;20032;-18
2022/02/15 07:24:43;;;;;;;10.30;6.10;;;;;;;3.90;78.42;100278.41;5081530;28;20082;-19
2022/02/15 07:27:09;;;;;;;9.10;5.50;;;;;;;3.90;78.01;100281.03;5078363;28;20024;-21
2022/02/15 07:29:34;;;;;;;8.50;5.85;;;;;;;3.88;77.70;100282.75;5077779;28;20039;-19
2022/02/15 07:31:59;;;;;;;8.75;6.25;;;;;;;3.90;78.44;100269.72;5078267;28;20031;-18
2022/02/15 07:34:25;;;;;;;7.75;5.80;;;;;;;3.89;78.22;100279.28;5077512;28;20024;-18
2022/02/15 07:36:51;;;;;;;11.57;6.32;;;;;;;3.90;78.53;100267.13;5079549;28;20027;-22
2022/02/15 07:39:16;;;;;;;8.15;6.40;;;;;;;3.89;78.19;100274.06;5077190;28;20510;-18
2022/02/15 07:41:41;;;;;;;8.60;7.13;;;;;;;3.90;78.07;100275.81;5080942;28;20103;-20
2022/02/15 07:44:07;;;;;;;8.90;7.10;;;;;;;3.90;77.98;100291.47;5077038;28;20036;-23
2022/02/15 07:46:33;;;;;;;9.48;7.50;;;;;;;3.90;78.02;100294.06;5081684;28;20040;-20
2022/02/15 07:48:58;;;;;;;8.98;7.15;;;;;;;3.91;78.06;100298.44;5079178;28;20131;-19
2022/02/15 07:51:23;;;;;;;10.98;6.88;;;;;;;3.91;78.43;100297.56;5077124;28;20391;-18
2022/02/15 07:53:49;;;;;;;9.75;7.70;;;;;;;3.92;78.22;100297.59;5080525;28;20020;-18
2022/02/15 07:56:14;;;;;;;11.70;7.68;;;;;;;3.92;78.17;100300.19;5079025;28;20029;-19
2022/02/15 07:58:40;;;;;;;11.13;7.25;;;;;;;3.93;78.49;100304.56;5077040;28;20028;-20
2022/02/15 08:01:05;;;;;;;11.15;7.03;;;;;;;3.94;78.75;100297.59;5077877;28;20035;-22
2022/02/15 08:03:31;;;;;;;9.48;6.85;;;;;;;3.94;78.18;100302.81;5078795;28;20054;-20
2022/02/15 08:05:56;;;;;;;7.82;7.00;;;;;;;3.97;78.19;100310.69;5076051;28;20256;-20
2022/02/15 08:08:22;;;;;;;8.90;7.25;;;;;;;4.01;78.15;100306.38;5076284;28;20016;-19
2022/02/15 08:10:48;;;;;;;10.35;7.25;;;;;;;4.03;78.50;100317.72;5080335;28;20496;-20
2022/02/15 08:13:21;;;;;;;12.25;7.70;;;;;;;4.04;78.22;100324.69;5077375;28;20146;-19
2022/02/15 08:15:49;;;;;;;10.70;6.95;;;;;;;4.07;78.49;100322.13;5077455;28;20024;-18
2022/02/15 08:18:15;;;;;;;12.65;7.45;;;;;;;4.12;78.50;100323.03;5079647;28;20167;-19
2022/02/15 08:20:41;;;;;;;8.65;6.90;;;;;;;4.13;78.99;100314.34;5078949;28;20024;-26
2022/02/15 08:23:06;;;;;;;10.45;7.13;;;;;;;4.18;78.78;100317.00;5076414;28;20027;-19
2022/02/15 08:25:34;;;;;;;10.80;7.63;;;;;;;4.24;78.90;100315.34;5081322;28;20158;-20
2022/02/15 08:27:59;;;;;;;7.72;6.93;;;;;;;4.27;78.98;100306.66;5078734;28;20024;-20
2022/02/15 08:30:25;;;;;;;11.98;8.45;;;;;;;4.34;78.61;100312.84;5072479;28;20039;-23
2022/02/15 08:32:50;;;;;;;11.23;7.18;;;;;;;4.37;78.08;100299.84;5076006;28;20485;-20
2022/02/15 08:35:17;;;;;;;10.18;7.70;;;;;;;4.45;78.35;100302.50;5081103;28;20029;-18
2022/02/15 08:37:43;;;;;;;12.45;8.10;;;;;;;4.53;79.00;100308.69;5078927;28;20482;-19
2022/02/15 08:40:09;;;;;;;9.85;7.78;;;;;;;4.56;78.56;100300.88;5077761;28;20448;-19
2022/02/15 08:42:34;;;;;;;12.15;8.43;;;;;;;4.62;78.85;100300.06;5079505;28;20024;-20
2022/02/15 08:45:00;;;;;;;10.77;7.32;;;;;;;4.69;78.25;100307.09;5075860;28;20016;-20
2022/02/15 08:47:25;;;;;;;8.75;7.03;;;;;;;4.75;78.68;100298.44;5081699;28;20542;-20
2022/02/15 08:49:52;;;;;;;12.88;7.28;;;;;;;4.84;78.67;100300.25;5079333;28;20024;-20
2022/02/15 08:52:23;;;;;;;10.40;6.97;;;;;;;4.92;79.05;100301.19;5076623;28;20054;-19
2022/02/15 08:54:50;;;;;;;11.18;7.75;;;;;;;5.14;80.34;100309.22;5079940;28;20023;-23
2022/02/15 08:57:15;;;;;;;11.25;7.60;;;;;;;5.28;81.79;100313.66;5080213;28;20521;-23
2022/02/15 08:59:41;;;;;;;11.27;8.93;;;;;;;5.36;81.28;100306.72;5081056;28;20072;-21
2022/02/15 09:02:08;;;;;;;15.27;8.20;;;;;;;5.46;81.44;100299.81;5077984;28;20028;-21
2022/02/15 09:04:34;;;;;;;13.10;7.95;;;;;;;5.57;81.51;100294.66;5080543;28;20450;-23
2022/02/15 09:06:59;;;;;;;13.93;7.78;;;;;;;5.69;81.83;100305.19;5078219;28;20102;-23
2022/02/15 09:09:25;;;;;;;13.20;8.05;;;;;;;5.84;81.50;100298.28;5072263;28;20036;-22
2022/02/15 09:11:50;;;;;;;10.27;7.32;;;;;;;5.94;81.70;100294.84;5077914;28;20042;-23
2022/02/15 09:14:15;;;;;;;9.55;7.22;;;;;;;6.03;81.68;100284.41;5076468;28;20378;-21
2022/02/15 09:16:41;;;;;;;15.35;8.05;;;;;;;6.15;81.50;100298.41;5074227;28;20027;-23
2022/02/15 09:19:06;;;;;;;9.35;7.18;;;;;;;6.24;81.62;100282.72;5077723;28;20465;-21
2022/02/15 09:21:34;;;;;;;9.93;8.10;;;;;;;6.33;81.50;100286.25;5076352;28;20482;-23
2022/02/15 09:24:00;;;;;;;13.25;7.82;;;;;;;6.42;81.02;100296.75;5075933;28;20020;-22
2022/02/15 09:26:25;;;;;;;12.38;7.60;;;;;;;6.48;80.05;100302.00;5073852;28;20148;-21
2022/02/15 09:28:50;;;;;;;11.10;7.95;;;;;;;6.56;80.55;100282.81;5078950;28;20057;-20
2022/02/15 09:31:16;;;;;;;10.68;7.90;;;;;;;6.65;80.01;100294.16;5074858;28;20034;-22
2022/02/15 09:33:42;;;;;;;15.38;7.93;;;;;;;6.71;80.25;100290.69;5077501;28;20463;-22
2022/02/15 09:36:08;;;;;;;12.10;7.18;;;;;;;6.78;79.95;100302.91;5076668;28;20031;-21
2022/02/15 09:38:34;;;;;;;13.10;8.10;;;;;;;6.88;80.09;100295.03;5075433;28;20043;-23
2022/02/15 09:41:06;;;;;;;13.15;7.82;;;;;;;6.97;79.61;100304.66;5079679;28;20021;-27
2022/02/15 09:43:38;;;;;;;12.85;7.32;;;;;;;7.04;79.37;100301.16;5074980;28;20039;-23
2022/02/15 09:46:07;;;;;;;13.55;7.47;;;;;;;7.15;79.56;100312.53;5076054;28;20020;-22
2022/02/15 09:48:32;;;;;;;13.50;7.53;;;;;;;7.23;79.26;100309.88;5078684;28;20890;-22
2022/02/15 09:50:59;;;;;;;15.27;8.43;;;;;;;7.32;79.03;100309.88;5079878;28;20025;-21
2022/02/15 09:53:25;;;;;;;15.23;9.13;;;;;;;7.40;78.92;100315.09;5075883;28;20047;-23
2022/02/15 09:55:50;;;;;;;14.73;8.63;;;;;;;7.49;78.47;100316.84;5079885;28;20055;-24
2022/02/15 09:58:15;;;;;;;14.63;8.15;;;;;;;7.53;78.44;100325.56;5078982;28;20058;-21
2022/02/15 10:00:43;;;;;;;14.70;8.63;;;;;;;7.60;78.28;100321.19;5065554;28;20026;-23
2022/02/15 10:03:10;;;;;;;11.18;7.60;;;;;;;7.66;77.96;100336.91;5075052;28;20470;-22
2022/02/15 10:05:35;;;;;;;9.80;7.53;;;;;;;7.72;77.47;100346.53;5078146;28;20089;-23
2022/02/15 10:08:01;;;;;;;11.32;7.35;;;;;;;7.72;77.25;100342.16;5083014;28;20365;-21
2022/02/15 10:10:32;;;;;;;9.52;6.43;;;;;;;7.80;76.99;100348.25;5079594;28;20035;-22
2022/02/15 10:13:01;;;;;;;10.15;7.53;;;;;;;7.88;77.02;100350.00;5078890;28;20012;-21
2022/02/15 10:15:28;;;;;;;10.02;6.80;;;;;;;7.92;77.36;100352.63;5081927;28;20043;-21
2022/02/15 10:18:04;;;;;;;12.13;6.95;;;;;;;7.94;77.55;100358.72;5081339;28;20540;-20
2022/02/15 10:20:30;;;;;;;11.18;7.68;;;;;;;8.01;77.45;100362.22;5080684;28;20549;-21
2022/02/15 10:23:17;;;;;;;12.38;8.15;;;;;;;8.05;77.32;100361.31;5081418;28;20167;-20
2022/02/15 10:25:42;;;;;;;10.40;7.65;;;;;;;8.08;76.88;100377.06;5084791;28;20059;-21
2022/02/15 10:28:19;;;;;;;9.98;6.78;;;;;;;8.12;76.92;100371.78;5081477;28;20114;-21
2022/02/15 10:30:53;;;;;;;11.95;8.32;;;;;;;8.18;77.11;100374.41;5084945;28;20103;-21
2022/02/15 10:33:21;;;;;;;15.00;8.25;;;;;;;8.20;77.49;100375.25;5081008;28;20016;-20
2022/02/15 10:36:02;;;;;;;15.65;8.25;;;;;;;8.18;77.91;100380.53;5075941;28;20031;-21
2022/02/15 10:38:28;;;;;;;;;;;;;;;8.22;77.55;100384.03;5081965;28;20167;-20
2022/02/15 10:40:57;;;;;;;12.13;7.65;;;;;;;8.22;77.43;100384.03;5079809;28;20382;-20
2022/02/15 10:43:23;;;;;;;8.98;7.38;;;;;;;8.25;77.44;100381.38;5082027;28;20012;-20
2022/02/15 10:45:49;;;;;;;13.40;7.95;;;;;;;8.26;77.21;100384.88;5076676;28;20020;-21
2022/02/15 10:48:14;;;;;;;9.68;7.53;;;;;;;8.26;77.01;100379.59;5081380;28;20053;-21
2022/02/15 10:50:40;;;;;;;9.80;6.75;;;;;;;8.26;76.89;100379.59;5079785;28;20106;-21
2022/02/15 10:53:06;;;;;;;10.80;7.10;;;;;;;8.28;77.02;100386.63;5077891;28;20486;-20
2022/02/15 10:55:32;;;;;;;8.32;7.03;;;;;;;8.28;76.81;100378.75;5077397;28;20032;-20
2022/02/15 10:57:58;;;;;;;8.32;6.55;;;;;;;8.27;77.16;100376.13;5080006;28;20023;-21
2022/02/15 11:00:24;;;;;;;9.75;6.78;;;;;;;8.23;77.34;100366.50;5079256;28;20028;-20
2022/02/15 11:02:51;;;;;;;9.23;6.53;;;;;;;8.25;77.22;100378.75;5080866;28;20031;-22
2022/02/15 11:05:17;;;;;;;9.73;6.43;;;;;;;8.25;76.91;100376.13;5081779;28;20119;-20
2022/02/15 11:07:43;;;;;;;7.20;5.28;;;;;;;8.25;76.75;100373.50;5077577;28;20024;-19
2022/02/15 11:10:19;;;;;;;7.22;5.50;;;;;;;8.28;76.81;100373.50;5065819;28;20444;-20
2022/02/15 11:12:55;;;;;;;5.70;5.00;;;;;;;8.28;76.46;100380.50;5097059;28;20363;-25
2022/02/15 11:15:26;;;;;;;5.80;4.55;;;;;;;8.23;76.66;100377.88;5082304;28;20501;-21
2022/02/15 11:17:56;;;;;;;7.03;5.03;;;;;;;8.27;76.84;100382.22;5079779;28;20032;-22
2022/02/15 11:20:24;;;;;;;5.18;4.53;;;;;;;8.27;76.81;100387.50;5079836;28;20036;-21
2022/02/15 11:22:53;;;;;;;6.00;3.67;;;;;;;8.27;76.72;100376.97;5082922;28;20058;-23
2022/02/15 11:25:33;;;;;;;6.07;4.40;;;;;;;8.29;76.90;100382.22;5077773;28;20502;-21
2022/02/15 11:28:11;;;;;;;5.50;3.95;;;;;;;8.30;76.88;100376.97;5080298;28;21247;-21
2022/02/15 11:31:01;;;;;;;5.72;4.20;;;;;;;8.31;77.07;100372.59;5079211;28;20065;-26
2022/02/15 11:33:28;;;;;;;4.72;3.88;;;;;;;8.30;76.90;100371.72;5080664;28;20156;-20
2022/02/15 11:35:56;;;;;;;4.28;3.88;;;;;;;8.31;76.94;100378.72;5075451;28;20042;-20